Flugplatz Rotenburg (Wümme)

Für EDXQ sind keine METAR/TAF Berichte vorhanden.
Es werden die Flugwettermeldungen vom Flugplatz Bremen in 38 km Entfernung angezeigt.

Bericht für EDDW

vom 28.01. um 16:20 UTC

Wind 20 kt aus 240° in Böen 30 kt

Sichtweite 10 km oder mehr

schwacher Regen

aufgebrochene Bewölkung in 1700 ft

aufgebrochene Bewölkung in 2200 ft

Temperatur 4.0°C

Taupunkt 2.0°C

Luftfeuchtigkeit 87%

Luftdruck 990 hPa

keine wesentliche Wetteränderung innerhalb den nächsten 2 Stunden zu erwarten

EDDW 281620Z 24020G30KT 9999 -RA BKN017 BKN022 04/02 Q0990 NOSIG

Prognose für EDDW

vom 28.01. um 00:00 UTC

Zwischen 00:00 UTC und 00:00 UTC

Wind 12 kt aus 220°

Sichtweite 10 km oder mehr

aufgebrochene Bewölkung in 2000 ft


Zwischen 00:00 UTC und 00:00 UTC zeitweise mit einer Wahrscheinlichkeit von 30%

Regenschauer

aufgebrochene Bewölkung in 1200 ft


Zwischen 00:00 UTC und 00:00 UTC zeitweise

Wind 15 kt aus 230° in Böen 25 kt


Zwischen 00:00 UTC und 00:00 UTC zeitweise mit einer Wahrscheinlichkeit von 30%

Wind 20 kt aus 250° in Böen 40 kt


Am 29.01. zwischen 00:00 UTC und 00:00 UTC zeitweise

aufgebrochene Bewölkung in 1000 ft

TAF COR EDDW 281100Z 2812/2912 22012KT 9999 BKN020 TEMPO 2812/2912 23015G25KT PROB30 TEMPO 2812/2818 SHRA BKN012CB PROB30 TEMPO 2813/2819 25020G40KT TEMPO 2903/2909 BKN010
Impressum